createdAt,value
2022-10-20T00:01:44.120Z,40.81
2022-10-20T00:04:10.898Z,40.24
2022-10-20T00:06:37.719Z,40.49
2022-10-20T00:09:04.556Z,40.38
2022-10-20T00:11:31.362Z,40.27
2022-10-20T00:13:58.177Z,39.98
2022-10-20T00:16:24.921Z,40.02
2022-10-20T00:18:52.049Z,41.88
2022-10-20T00:21:18.848Z,43.43
2022-10-20T00:23:45.602Z,45.40
2022-10-20T00:26:12.343Z,46.95
2022-10-20T00:28:39.136Z,44.22
2022-10-20T00:31:05.883Z,42.74
2022-10-20T00:33:32.647Z,41.92
2022-10-20T00:35:59.853Z,41.59
2022-10-20T00:38:26.738Z,40.82
2022-10-20T00:40:53.498Z,40.82
2022-10-20T00:43:20.322Z,40.61
2022-10-20T00:45:47.100Z,40.49
2022-10-20T00:48:13.848Z,40.06
2022-10-20T00:50:41.470Z,40.55
2022-10-20T00:53:08.265Z,40.22
2022-10-20T00:55:35.007Z,39.73
2022-10-20T00:58:01.785Z,39.65
2022-10-20T01:00:28.533Z,40.39
2022-10-20T01:02:55.283Z,43.00
2022-10-20T01:05:22.053Z,42.70
2022-10-20T01:07:48.787Z,47.85
2022-10-20T01:10:15.526Z,44.99
2022-10-20T01:12:42.293Z,42.91
2022-10-20T01:15:09.040Z,41.72
2022-10-20T01:17:36.238Z,41.38
2022-10-20T01:20:03.285Z,40.98
2022-10-20T01:22:30.038Z,40.58
2022-10-20T01:24:56.785Z,40.71
2022-10-20T01:27:23.584Z,40.43
2022-10-20T01:29:50.449Z,40.26
2022-10-20T01:32:17.264Z,40.01
2022-10-20T01:34:46.825Z,40.11
2022-10-20T01:37:28.220Z,40.09
2022-10-20T01:40:02.725Z,39.77
2022-10-20T01:42:29.851Z,39.65
2022-10-20T01:44:56.633Z,39.23
2022-10-20T01:47:23.401Z,42.35
2022-10-20T01:49:50.200Z,42.69
2022-10-20T01:52:16.965Z,46.49
2022-10-20T01:54:43.723Z,45.92
2022-10-20T01:57:10.478Z,42.85
2022-10-20T01:59:37.222Z,41.63
2022-10-20T02:02:04.105Z,41.53
2022-10-20T02:04:30.856Z,41.09
2022-10-20T02:06:57.613Z,40.56
2022-10-20T02:09:24.368Z,40.37
2022-10-20T02:11:51.136Z,40.17
2022-10-20T02:14:17.875Z,40.06
2022-10-20T02:16:44.632Z,39.75
2022-10-20T02:19:11.420Z,39.69
2022-10-20T02:21:38.185Z,39.64
2022-10-20T02:24:05.008Z,39.68
2022-10-20T02:26:32.285Z,39.52
2022-10-20T02:28:59.038Z,39.29
2022-10-20T02:31:25.789Z,41.91
2022-10-20T02:33:52.565Z,42.85
2022-10-20T02:36:19.327Z,47.04
2022-10-20T02:38:46.097Z,45.28
2022-10-20T02:41:12.894Z,42.46
2022-10-20T02:43:39.673Z,41.26
2022-10-20T02:46:06.479Z,41.05
2022-10-20T02:48:33.230Z,40.63
2022-10-20T02:51:00.094Z,40.30
2022-10-20T02:53:26.849Z,40.12
2022-10-20T02:55:53.812Z,39.79
2022-10-20T02:58:20.574Z,39.70
2022-10-20T03:00:47.332Z,39.83
2022-10-20T03:03:14.075Z,39.85
2022-10-20T03:05:41.733Z,39.41
2022-10-20T03:08:08.549Z,39.21
2022-10-20T03:10:37.208Z,39.10
2022-10-20T03:13:03.971Z,39.03
2022-10-20T03:15:30.738Z,39.15
2022-10-20T03:17:57.494Z,38.80
2022-10-20T03:20:24.263Z,39.55
2022-10-20T03:22:51.035Z,42.70
2022-10-20T03:25:17.802Z,43.05
2022-10-20T03:27:44.545Z,46.50
2022-10-20T03:30:11.349Z,43.15
2022-10-20T03:32:38.436Z,40.83
2022-10-20T03:35:05.431Z,40.50
2022-10-20T03:37:32.191Z,39.93
2022-10-20T03:39:58.933Z,40.14
2022-10-20T03:42:25.680Z,40.06
2022-10-20T03:44:52.437Z,39.56
2022-10-20T03:47:19.256Z,39.32
2022-10-20T03:49:46.000Z,39.68
2022-10-20T03:52:12.761Z,39.32
2022-10-20T03:54:40.800Z,38.97
2022-10-20T03:57:08.073Z,38.94
2022-10-20T03:59:34.953Z,39.01
2022-10-20T04:02:01.783Z,38.54
2022-10-20T04:04:28.585Z,38.80
2022-10-20T04:06:55.338Z,41.96
2022-10-20T04:09:22.087Z,42.19
2022-10-20T04:11:48.867Z,46.44
2022-10-20T04:14:15.663Z,43.61
2022-10-20T04:16:42.422Z,41.68
2022-10-20T04:19:09.210Z,40.62
2022-10-20T04:21:36.033Z,40.29
2022-10-20T04:24:02.782Z,40.08
2022-10-20T04:26:29.537Z,39.76
2022-10-20T04:28:56.897Z,39.74
2022-10-20T04:31:23.637Z,39.41
2022-10-20T04:33:50.386Z,39.39
2022-10-20T04:36:17.284Z,39.19
2022-10-20T04:38:44.091Z,38.61
2022-10-20T04:41:10.958Z,38.57
2022-10-20T04:43:37.778Z,38.82
2022-10-20T04:46:07.948Z,38.09
2022-10-20T04:48:35.686Z,41.15
2022-10-20T04:51:02.538Z,41.93
2022-10-20T04:53:29.305Z,46.31
2022-10-20T04:55:56.081Z,44.68
2022-10-20T04:58:22.911Z,41.95
2022-10-20T05:00:50.070Z,40.76
2022-10-20T05:03:16.887Z,40.02
2022-10-20T05:05:43.654Z,39.67
2022-10-20T05:08:10.555Z,39.87
2022-10-20T05:10:37.296Z,39.39
2022-10-20T05:13:04.052Z,39.25
2022-10-20T05:15:30.870Z,39.11
2022-10-20T05:17:57.682Z,39.04
2022-10-20T05:20:24.569Z,38.81
2022-10-20T05:22:51.421Z,38.23
2022-10-20T05:25:35.447Z,38.37
2022-10-20T05:28:03.093Z,38.25
2022-10-20T05:30:29.878Z,38.41
2022-10-20T05:32:56.671Z,39.33
2022-10-20T05:35:23.420Z,41.49
2022-10-20T05:37:50.182Z,43.49
2022-10-20T05:40:16.936Z,45.12
2022-10-20T05:42:43.713Z,41.96
2022-10-20T05:45:10.466Z,40.11
2022-10-20T05:47:37.274Z,39.80
2022-10-20T05:50:04.054Z,39.56
2022-10-20T05:52:30.817Z,39.44
2022-10-20T05:54:59.359Z,39.06
2022-10-20T05:57:26.116Z,38.82
2022-10-20T05:59:52.860Z,38.91
2022-10-20T06:02:19.731Z,38.84
2022-10-20T06:04:46.577Z,38.90
2022-10-20T06:07:13.321Z,38.44
2022-10-20T06:09:40.069Z,38.23
2022-10-20T06:14:38.521Z,41.30
2022-10-20T06:17:05.294Z,42.60
2022-10-20T06:19:32.065Z,46.42
2022-10-20T06:22:03.805Z,43.63
2022-10-20T06:24:33.417Z,41.18
2022-10-20T06:27:00.195Z,40.32
2022-10-20T06:29:26.937Z,40.08
2022-10-20T06:31:53.688Z,39.10
2022-10-20T06:34:20.479Z,38.90
2022-10-20T06:36:47.248Z,38.97
2022-10-20T06:39:14.049Z,38.84
2022-10-20T06:41:40.859Z,38.72
2022-10-20T06:44:07.667Z,38.71
2022-10-20T06:46:35.116Z,38.69
2022-10-20T06:49:03.436Z,38.32
2022-10-20T06:51:30.227Z,37.95
2022-10-20T06:53:56.996Z,38.09
2022-10-20T06:56:23.734Z,37.69
2022-10-20T06:58:50.473Z,37.59
2022-10-20T07:01:17.414Z,40.79
2022-10-20T07:03:44.527Z,43.18
2022-10-20T07:06:11.320Z,45.42
2022-10-20T07:08:38.188Z,41.66
2022-10-20T07:11:05.081Z,39.82
2022-10-20T07:13:31.825Z,39.96
2022-10-20T07:15:58.588Z,39.02
2022-10-20T07:18:25.386Z,38.81
2022-10-20T07:20:52.126Z,38.49
2022-10-20T07:23:18.916Z,38.44
2022-10-20T07:25:45.784Z,38.21
2022-10-20T07:28:12.699Z,38.24
2022-10-20T07:30:39.817Z,37.97
2022-10-20T07:33:06.565Z,38.07
2022-10-20T07:35:33.329Z,40.81
2022-10-20T07:38:00.093Z,42.89
2022-10-20T07:40:26.839Z,46.29
2022-10-20T07:42:53.693Z,41.82
2022-10-20T07:45:20.454Z,40.29
2022-10-20T07:47:47.760Z,39.60
2022-10-20T07:50:14.633Z,39.09
2022-10-20T07:52:41.384Z,38.84
2022-10-20T07:55:17.860Z,38.49
2022-10-20T07:57:54.918Z,38.42
2022-10-20T08:00:21.673Z,38.63
2022-10-20T08:02:48.408Z,38.24
2022-10-20T08:05:15.193Z,38.15
2022-10-20T08:07:41.951Z,38.11
2022-10-20T08:10:08.717Z,37.81
2022-10-20T08:12:35.754Z,38.10
2022-10-20T08:15:04.711Z,38.09
2022-10-20T08:17:31.593Z,40.14
2022-10-20T08:22:47.983Z,46.40
2022-10-20T08:25:15.006Z,42.93
2022-10-20T08:27:41.810Z,40.54
2022-10-20T08:30:23.367Z,39.93
2022-10-20T08:32:50.826Z,39.35
2022-10-20T08:35:17.599Z,38.78
2022-10-20T08:37:44.381Z,38.47
2022-10-20T08:40:11.192Z,38.75
2022-10-20T08:42:37.936Z,38.45
2022-10-20T08:45:04.683Z,38.18
2022-10-20T08:47:33.442Z,37.91
2022-10-20T08:50:00.524Z,38.20
2022-10-20T08:52:27.456Z,37.86
2022-10-20T08:54:55.112Z,37.96
2022-10-20T08:57:22.376Z,39.58
2022-10-20T08:59:49.113Z,44.77
2022-10-20T09:02:15.917Z,45.23
2022-10-20T09:07:14.451Z,40.25
2022-10-20T09:09:41.215Z,38.99
2022-10-20T09:12:08.023Z,38.50
2022-10-20T09:14:35.330Z,38.54
2022-10-20T09:17:02.557Z,38.32
2022-10-20T09:19:29.336Z,37.99
2022-10-20T09:21:56.141Z,38.12
2022-10-20T09:24:22.902Z,37.57
2022-10-20T09:27:05.004Z,38.06
2022-10-20T09:29:31.796Z,37.58
2022-10-20T09:32:01.365Z,38.16
2022-10-20T09:34:31.460Z,41.83
2022-10-20T09:36:58.332Z,42.01
2022-10-20T09:39:25.074Z,45.26
2022-10-20T09:41:51.883Z,41.63
2022-10-20T09:44:23.631Z,40.26
2022-10-20T09:46:50.560Z,39.39
2022-10-20T09:49:17.297Z,38.96
2022-10-20T09:51:44.107Z,38.36
2022-10-20T09:54:10.897Z,38.86
2022-10-20T09:56:37.642Z,38.58
2022-10-20T09:59:04.397Z,38.48
2022-10-20T10:01:31.192Z,38.15
2022-10-20T10:04:01.729Z,38.29
2022-10-20T10:06:28.551Z,37.97
2022-10-20T10:08:55.325Z,37.84
2022-10-20T10:11:22.086Z,37.80
2022-10-20T10:13:48.842Z,38.65
2022-10-20T10:16:15.647Z,42.10
2022-10-20T10:18:46.750Z,42.86
2022-10-20T10:21:18.173Z,44.54
2022-10-20T10:23:44.927Z,41.24
2022-10-20T10:26:11.678Z,40.42
2022-10-20T10:28:38.503Z,39.08
2022-10-20T10:31:05.418Z,39.00
2022-10-20T10:33:33.189Z,38.98
2022-10-20T10:35:59.952Z,38.29
2022-10-20T10:38:26.692Z,38.18
2022-10-20T10:40:53.438Z,37.87
2022-10-20T10:43:22.574Z,38.16
2022-10-20T10:45:49.333Z,38.06
2022-10-20T10:48:16.081Z,37.92
2022-10-20T10:50:42.841Z,37.71
2022-10-20T10:53:09.885Z,37.74
2022-10-20T10:55:48.203Z,38.51
2022-10-20T10:58:15.386Z,42.28
2022-10-20T11:00:42.193Z,43.79
2022-10-20T11:03:08.993Z,43.60
2022-10-20T11:05:35.749Z,40.75
2022-10-20T11:08:02.536Z,39.90
2022-10-20T11:10:29.375Z,38.79
2022-10-20T11:12:56.148Z,38.41
2022-10-20T11:15:22.956Z,38.57
2022-10-20T11:17:49.710Z,38.31
2022-10-20T11:20:16.462Z,38.02
2022-10-20T11:22:43.306Z,38.34
2022-10-20T11:25:10.166Z,37.76
2022-10-20T11:27:37.397Z,38.07
2022-10-20T11:30:08.085Z,37.74
2022-10-20T11:35:02.781Z,41.81
2022-10-20T11:37:29.512Z,45.30
2022-10-20T11:39:56.338Z,43.07
2022-10-20T11:42:23.096Z,39.96
2022-10-20T11:44:49.863Z,39.26
2022-10-20T11:47:16.605Z,39.12
2022-10-20T11:49:43.413Z,38.51
2022-10-20T11:52:10.181Z,38.02
2022-10-20T11:54:36.979Z,38.10
2022-10-20T11:57:03.793Z,38.14
2022-10-20T11:59:30.532Z,38.03
2022-10-20T12:01:57.521Z,38.24
2022-10-20T12:04:24.588Z,38.17
2022-10-20T12:06:51.329Z,37.84
2022-10-20T12:09:18.167Z,41.00
2022-10-20T12:11:45.113Z,45.27
2022-10-20T12:14:11.857Z,43.33
2022-10-20T12:16:38.669Z,40.20
2022-10-20T12:19:05.449Z,39.15
2022-10-20T12:21:34.407Z,38.51
2022-10-20T12:24:05.703Z,38.56
2022-10-20T12:26:35.430Z,38.19
2022-10-20T12:29:03.277Z,38.30
2022-10-20T12:31:30.034Z,38.04
2022-10-20T12:33:59.068Z,37.81
2022-10-20T12:36:25.806Z,37.92
2022-10-20T12:38:52.729Z,41.89
2022-10-20T12:41:19.489Z,44.88
2022-10-20T12:43:46.272Z,43.11
2022-10-20T12:46:13.222Z,40.05
2022-10-20T12:48:40.260Z,38.91
2022-10-20T12:51:07.442Z,38.61
2022-10-20T12:53:34.195Z,38.20
2022-10-20T12:56:01.038Z,38.40
2022-10-20T12:58:27.828Z,37.78
2022-10-20T13:00:54.632Z,38.01
2022-10-20T13:03:25.407Z,37.63
2022-10-20T13:05:52.897Z,38.05
2022-10-20T13:08:19.661Z,39.16
2022-10-20T13:10:46.423Z,44.49
2022-10-20T13:13:13.169Z,44.22
2022-10-20T13:15:39.916Z,40.05
2022-10-20T13:18:06.670Z,39.30
2022-10-20T13:20:33.424Z,38.24
2022-10-20T13:25:31.860Z,38.27
2022-10-20T13:27:58.632Z,38.20
2022-10-20T13:30:25.372Z,37.98
2022-10-20T13:33:10.948Z,37.92
2022-10-20T13:35:38.887Z,37.83
2022-10-20T13:38:05.650Z,40.45
2022-10-20T13:40:36.561Z,43.15
2022-10-20T13:43:03.589Z,43.37
2022-10-20T13:45:30.347Z,39.63
2022-10-20T13:47:57.089Z,38.55
2022-10-20T13:50:23.901Z,38.81
2022-10-20T13:52:50.740Z,38.49
2022-10-20T13:55:17.493Z,38.44
2022-10-20T13:57:44.247Z,38.12
2022-10-20T14:00:11.009Z,38.29
2022-10-20T14:02:38.102Z,38.12
2022-10-20T14:05:05.003Z,40.96
2022-10-20T14:07:31.765Z,44.32
2022-10-20T14:09:59.022Z,43.03
2022-10-20T14:12:25.826Z,40.19
2022-10-20T14:14:52.591Z,38.82
2022-10-20T14:17:19.333Z,38.48
2022-10-20T14:19:46.932Z,38.33
2022-10-20T14:22:13.868Z,38.08
2022-10-20T14:24:40.618Z,38.04
2022-10-20T14:27:07.360Z,38.20
2022-10-20T14:29:34.123Z,38.06
2022-10-20T14:32:00.910Z,43.62
2022-10-20T14:34:27.680Z,44.88
2022-10-20T14:36:54.441Z,41.98
2022-10-20T14:39:21.189Z,39.43
2022-10-20T14:41:47.937Z,38.84
2022-10-20T14:44:26.228Z,38.70
2022-10-20T14:46:57.683Z,38.28
2022-10-20T14:49:24.485Z,38.19
2022-10-20T14:51:51.256Z,38.10
2022-10-20T14:54:18.057Z,38.17
2022-10-20T14:56:44.930Z,37.71
2022-10-20T14:59:11.720Z,38.02
2022-10-20T15:01:38.562Z,41.89
2022-10-20T15:04:05.535Z,44.46
2022-10-20T15:06:32.424Z,44.32
2022-10-20T15:08:59.732Z,40.86
2022-10-20T15:11:26.577Z,39.63
2022-10-20T15:13:53.320Z,39.29
2022-10-20T15:16:20.080Z,38.75
2022-10-20T15:18:46.889Z,38.48
2022-10-20T15:21:13.673Z,38.53
2022-10-20T15:23:40.429Z,38.38
2022-10-20T15:26:07.344Z,38.06
2022-10-20T15:28:34.093Z,38.26
2022-10-20T15:31:00.897Z,38.40
2022-10-20T15:33:27.709Z,38.10
2022-10-20T15:35:54.840Z,39.18
2022-10-20T15:38:21.593Z,42.10
2022-10-20T15:40:48.382Z,43.85
2022-10-20T15:43:15.200Z,44.11
2022-10-20T15:45:41.944Z,41.22
2022-10-20T15:48:08.860Z,39.39
2022-10-20T15:50:35.606Z,39.66
2022-10-20T15:53:02.940Z,38.85
2022-10-20T15:55:30.055Z,38.79
2022-10-20T15:57:56.850Z,38.75
2022-10-20T16:00:23.589Z,38.52
2022-10-20T16:02:50.398Z,38.63
2022-10-20T16:05:17.145Z,38.20
2022-10-20T16:07:43.895Z,38.04
2022-10-20T16:10:10.680Z,38.14
2022-10-20T16:12:37.852Z,37.81
2022-10-20T16:15:04.921Z,41.97
2022-10-20T16:17:31.681Z,41.81
2022-10-20T16:19:58.480Z,44.75
2022-10-20T16:22:26.374Z,42.36
2022-10-20T16:24:53.187Z,40.93
2022-10-20T16:27:19.937Z,39.66
2022-10-20T16:29:49.097Z,39.14
2022-10-20T16:32:16.675Z,38.98
2022-10-20T16:34:43.481Z,39.02
2022-10-20T16:37:10.278Z,38.61
2022-10-20T16:39:37.055Z,38.19
2022-10-20T16:42:03.810Z,38.51
2022-10-20T16:44:30.741Z,38.42
2022-10-20T16:46:57.891Z,38.34
2022-10-20T16:49:24.629Z,37.74
2022-10-20T16:51:51.408Z,38.03
2022-10-20T16:54:18.162Z,37.88
2022-10-20T16:56:48.948Z,41.77
2022-10-20T16:59:15.740Z,41.32
2022-10-20T17:01:42.509Z,44.55
2022-10-20T17:04:09.262Z,42.57
2022-10-20T17:06:36.015Z,40.51
2022-10-20T17:09:02.936Z,39.22
2022-10-20T17:11:29.822Z,39.15
2022-10-20T17:13:56.569Z,38.75
2022-10-20T17:16:26.190Z,38.72
2022-10-20T17:18:55.366Z,38.19
2022-10-20T17:21:22.110Z,38.47
2022-10-20T17:23:48.878Z,38.33
2022-10-20T17:26:15.760Z,38.34
2022-10-20T17:28:42.497Z,38.12
2022-10-20T17:31:09.312Z,38.19
2022-10-20T17:33:36.095Z,38.22
2022-10-20T17:36:02.839Z,41.61
2022-10-20T17:38:29.661Z,42.29
2022-10-20T17:40:56.396Z,45.26
2022-10-20T17:43:23.165Z,43.13
2022-10-20T17:45:49.950Z,41.20
2022-10-20T17:48:16.695Z,39.71
2022-10-20T17:50:44.117Z,39.61
2022-10-20T17:53:10.879Z,39.26
2022-10-20T17:55:37.630Z,39.10
2022-10-20T17:58:05.962Z,38.97
2022-10-20T18:00:54.728Z,38.67
2022-10-20T18:03:19.573Z,38.41
2022-10-20T18:05:46.338Z,38.35
2022-10-20T18:08:13.074Z,38.12
2022-10-20T18:10:41.472Z,38.23
2022-10-20T18:13:10.407Z,39.50
2022-10-20T18:15:37.162Z,42.41
2022-10-20T18:18:03.917Z,42.08
2022-10-20T18:20:32.301Z,45.45
2022-10-20T18:23:01.073Z,41.88
2022-10-20T18:25:27.812Z,40.35
2022-10-20T18:27:55.319Z,39.80
2022-10-20T18:30:22.075Z,39.48
2022-10-20T18:32:48.872Z,39.20
2022-10-20T18:35:15.807Z,38.39
2022-10-20T18:37:44.730Z,38.54
2022-10-20T18:40:11.574Z,38.79
2022-10-20T18:42:38.948Z,38.21
2022-10-20T18:45:05.773Z,38.52
2022-10-20T18:47:32.509Z,38.18
2022-10-20T18:49:59.264Z,37.99
2022-10-20T18:52:25.999Z,38.06
2022-10-20T18:54:52.740Z,37.97
2022-10-20T18:57:19.493Z,41.26
2022-10-20T18:59:46.265Z,42.17
2022-10-20T19:02:13.038Z,46.13
2022-10-20T19:04:39.854Z,43.39
2022-10-20T19:07:06.580Z,41.24
2022-10-20T19:09:33.328Z,40.26
2022-10-20T19:12:00.843Z,39.16
2022-10-20T19:14:27.764Z,39.14
2022-10-20T19:16:54.541Z,38.77
2022-10-20T19:19:22.678Z,38.86
2022-10-20T19:21:49.454Z,38.29
2022-10-20T19:24:16.260Z,38.40
2022-10-20T19:26:43.065Z,38.24
2022-10-20T19:29:09.835Z,38.30
2022-10-20T19:31:36.572Z,37.98
2022-10-20T19:34:03.356Z,38.05
2022-10-20T19:36:30.174Z,38.14
2022-10-20T19:38:56.937Z,41.77
2022-10-20T19:41:23.694Z,42.42
2022-10-20T19:43:50.497Z,45.87
2022-10-20T19:46:17.263Z,43.32
2022-10-20T19:48:44.029Z,40.92
2022-10-20T19:51:10.803Z,40.14
2022-10-20T19:53:37.549Z,39.33
2022-10-20T19:56:04.313Z,39.08
2022-10-20T19:58:31.060Z,38.85
2022-10-20T20:00:57.856Z,38.53
2022-10-20T20:03:24.715Z,38.31
2022-10-20T20:05:51.457Z,38.14
2022-10-20T20:08:18.269Z,38.30
2022-10-20T20:10:45.202Z,38.44
2022-10-20T20:13:11.954Z,38.05
2022-10-20T20:15:38.693Z,38.05
2022-10-20T20:18:05.974Z,37.88
2022-10-20T20:20:32.768Z,42.20
2022-10-20T20:22:59.519Z,42.66
2022-10-20T20:25:26.281Z,46.62
2022-10-20T20:27:53.034Z,42.45
2022-10-20T20:30:19.772Z,40.12
2022-10-20T20:32:47.798Z,39.61
2022-10-20T20:35:17.648Z,39.02
2022-10-20T20:37:44.460Z,38.70
2022-10-20T20:40:11.249Z,38.47
2022-10-20T20:42:38.124Z,38.85
2022-10-20T20:45:04.998Z,38.51
2022-10-20T20:47:31.854Z,38.66
2022-10-20T20:50:00.389Z,38.27
2022-10-20T20:52:29.178Z,38.07
2022-10-20T20:54:55.940Z,38.12
2022-10-20T20:57:22.683Z,37.88
2022-10-20T20:59:49.432Z,39.85
2022-10-20T21:02:16.188Z,43.20
2022-10-20T21:04:42.933Z,46.13
2022-10-20T21:07:09.698Z,41.38
2022-10-20T21:09:36.466Z,39.97
2022-10-20T21:12:03.303Z,38.90
2022-10-20T21:14:30.099Z,38.47
2022-10-20T21:16:56.890Z,38.49
2022-10-20T21:19:23.635Z,38.45
2022-10-20T21:21:50.730Z,38.15
2022-10-20T21:24:17.746Z,37.85
2022-10-20T21:26:44.587Z,37.74
2022-10-20T21:29:11.378Z,37.83
2022-10-20T21:31:38.175Z,37.80
2022-10-20T21:34:04.925Z,37.99
2022-10-20T21:36:32.282Z,39.50
2022-10-20T21:38:59.081Z,44.54
2022-10-20T21:41:25.909Z,44.36
2022-10-20T21:43:52.732Z,40.48
2022-10-20T21:46:19.522Z,38.97
2022-10-20T21:48:46.326Z,38.63
2022-10-20T21:51:13.077Z,38.43
2022-10-20T21:53:39.822Z,38.45
2022-10-20T21:56:06.605Z,37.74
2022-10-20T21:58:33.534Z,37.98
2022-10-20T22:01:00.365Z,38.17
2022-10-20T22:03:27.225Z,37.96
2022-10-20T22:05:53.978Z,37.81
2022-10-20T22:08:20.735Z,37.79
2022-10-20T22:10:47.482Z,41.06
2022-10-20T22:13:14.261Z,41.61
2022-10-20T22:15:41.332Z,45.61
2022-10-20T22:18:08.102Z,42.54
2022-10-20T22:20:35.259Z,40.39
2022-10-20T22:23:02.916Z,38.98
2022-10-20T22:25:29.850Z,39.32
2022-10-20T22:27:56.613Z,38.60
2022-10-20T22:30:23.366Z,38.38
2022-10-20T22:32:50.113Z,38.33
2022-10-20T22:35:16.882Z,38.39
2022-10-20T22:37:43.659Z,38.02
2022-10-20T22:40:10.415Z,37.94
2022-10-20T22:42:37.424Z,37.52
2022-10-20T22:45:04.377Z,37.87
2022-10-20T22:47:31.121Z,37.94
2022-10-20T22:49:57.874Z,38.00
2022-10-20T22:52:24.760Z,39.33
2022-10-20T22:54:51.602Z,42.07
2022-10-20T22:57:18.421Z,45.36
2022-10-20T22:59:45.186Z,42.81
2022-10-20T23:02:11.941Z,40.16
2022-10-20T23:04:38.684Z,39.72
2022-10-20T23:07:05.437Z,38.90
2022-10-20T23:09:32.190Z,38.92
2022-10-20T23:11:58.946Z,38.32
2022-10-20T23:14:25.714Z,37.80
2022-10-20T23:16:52.469Z,37.99
2022-10-20T23:19:19.209Z,37.98
2022-10-20T23:21:45.971Z,37.83
2022-10-20T23:24:12.713Z,37.80
2022-10-20T23:26:39.532Z,37.78
2022-10-20T23:29:06.287Z,38.51
2022-10-20T23:31:33.060Z,42.24
2022-10-20T23:33:59.798Z,42.89
2022-10-20T23:36:26.549Z,44.35
2022-10-20T23:38:53.351Z,41.28
2022-10-20T23:41:20.092Z,39.99
2022-10-20T23:43:46.842Z,39.55
2022-10-20T23:46:13.669Z,38.87
2022-10-20T23:48:40.413Z,38.69
2022-10-20T23:51:07.172Z,38.32
2022-10-20T23:53:33.980Z,38.39
2022-10-20T23:56:00.747Z,38.27
2022-10-20T23:58:27.637Z,37.86
